sensor_id;sensor_type;location;lat;lon;timestamp;P1;durP1;ratioP1;P2;durP2;ratioP2
51616;SDS011;37697;52.588;13.394;2022-12-10T00:02:00;16.97;;;9.27;;
51616;SDS011;37697;52.588;13.394;2022-12-10T00:07:01;15.53;;;9.13;;
51616;SDS011;37697;52.588;13.394;2022-12-10T00:12:02;17.03;;;9.40;;
51616;SDS011;37697;52.588;13.394;2022-12-10T00:17:03;18.47;;;10.33;;
51616;SDS011;37697;52.588;13.394;2022-12-10T00:22:03;15.63;;;9.23;;
51616;SDS011;37697;52.588;13.394;2022-12-10T00:27:04;19.07;;;10.70;;
51616;SDS011;37697;52.588;13.394;2022-12-10T00:32:05;15.75;;;9.60;;
51616;SDS011;37697;52.588;13.394;2022-12-10T00:37:06;17.30;;;10.97;;
51616;SDS011;37697;52.588;13.394;2022-12-10T00:42:06;17.77;;;10.00;;
51616;SDS011;37697;52.588;13.394;2022-12-10T00:47:07;15.53;;;9.67;;
51616;SDS011;37697;52.588;13.394;2022-12-10T00:52:08;14.50;;;8.10;;
51616;SDS011;37697;52.588;13.394;2022-12-10T00:57:09;17.60;;;9.75;;
51616;SDS011;37697;52.588;13.394;2022-12-10T01:02:09;15.53;;;9.90;;
51616;SDS011;37697;52.588;13.394;2022-12-10T01:07:10;15.08;;;8.93;;
51616;SDS011;37697;52.588;13.394;2022-12-10T01:12:11;19.10;;;10.80;;
51616;SDS011;37697;52.588;13.394;2022-12-10T01:17:11;17.20;;;10.13;;
51616;SDS011;37697;52.588;13.394;2022-12-10T01:22:12;15.20;;;8.80;;
51616;SDS011;37697;52.588;13.394;2022-12-10T01:32:23;14.77;;;8.73;;
51616;SDS011;37697;52.588;13.394;2022-12-10T01:37:23;15.87;;;9.20;;
51616;SDS011;37697;52.588;13.394;2022-12-10T01:42:25;19.45;;;11.43;;
51616;SDS011;37697;52.588;13.394;2022-12-10T01:47:25;15.23;;;8.20;;
51616;SDS011;37697;52.588;13.394;2022-12-10T01:52:26;18.20;;;10.70;;
51616;SDS011;37697;52.588;13.394;2022-12-10T01:57:28;15.93;;;9.73;;
51616;SDS011;37697;52.588;13.394;2022-12-10T02:13:20;15.00;;;9.03;;
51616;SDS011;37697;52.588;13.394;2022-12-10T02:18:36;18.25;;;10.05;;
51616;SDS011;37697;52.588;13.394;2022-12-10T02:23:54;16.27;;;9.43;;
51616;SDS011;37697;52.588;13.394;2022-12-10T02:34:15;15.77;;;9.60;;
51616;SDS011;37697;52.588;13.394;2022-12-10T02:39:20;13.10;;;8.40;;
51616;SDS011;37697;52.588;13.394;2022-12-10T02:44:25;14.93;;;9.30;;
51616;SDS011;37697;52.588;13.394;2022-12-10T02:49:27;16.67;;;9.43;;
51616;SDS011;37697;52.588;13.394;2022-12-10T02:59:46;15.90;;;9.45;;
51616;SDS011;37697;52.588;13.394;2022-12-10T03:05:05;15.73;;;9.10;;
51616;SDS011;37697;52.588;13.394;2022-12-10T03:10:27;17.07;;;9.63;;
51616;SDS011;37697;52.588;13.394;2022-12-10T03:15:31;14.63;;;8.70;;
51616;SDS011;37697;52.588;13.394;2022-12-10T03:20:41;14.83;;;9.27;;
51616;SDS011;37697;52.588;13.394;2022-12-10T03:25:40;16.00;;;9.80;;
51616;SDS011;37697;52.588;13.394;2022-12-10T03:30:42;14.07;;;8.25;;
51616;SDS011;37697;52.588;13.394;2022-12-10T03:35:44;16.48;;;9.43;;
51616;SDS011;37697;52.588;13.394;2022-12-10T03:40:46;15.87;;;10.13;;
51616;SDS011;37697;52.588;13.394;2022-12-10T03:45:47;14.30;;;9.13;;
51616;SDS011;37697;52.588;13.394;2022-12-10T03:50:48;17.07;;;10.33;;
51616;SDS011;37697;52.588;13.394;2022-12-10T03:55:48;14.27;;;8.43;;
51616;SDS011;37697;52.588;13.394;2022-12-10T04:00:49;18.80;;;10.40;;
51616;SDS011;37697;52.588;13.394;2022-12-10T04:05:50;15.10;;;8.97;;
51616;SDS011;37697;52.588;13.394;2022-12-10T04:10:51;17.43;;;9.97;;
51616;SDS011;37697;52.588;13.394;2022-12-10T04:15:52;20.05;;;11.60;;
51616;SDS011;37697;52.588;13.394;2022-12-10T04:21:11;20.90;;;12.03;;
51616;SDS011;37697;52.588;13.394;2022-12-10T04:26:30;18.20;;;10.87;;
51616;SDS011;37697;52.588;13.394;2022-12-10T04:31:49;17.33;;;9.90;;
51616;SDS011;37697;52.588;13.394;2022-12-10T04:36:50;17.93;;;11.07;;
51616;SDS011;37697;52.588;13.394;2022-12-10T04:41:52;18.95;;;10.78;;
51616;SDS011;37697;52.588;13.394;2022-12-10T04:46:52;14.87;;;9.13;;
51616;SDS011;37697;52.588;13.394;2022-12-10T04:51:53;19.20;;;11.87;;
51616;SDS011;37697;52.588;13.394;2022-12-10T05:01:56;18.03;;;10.63;;
51616;SDS011;37697;52.588;13.394;2022-12-10T05:06:56;18.35;;;10.45;;
51616;SDS011;37697;52.588;13.394;2022-12-10T05:11:57;17.27;;;10.37;;
51616;SDS011;37697;52.588;13.394;2022-12-10T05:16:58;18.90;;;11.50;;
51616;SDS011;37697;52.588;13.394;2022-12-10T05:21:58;18.17;;;10.90;;
51616;SDS011;37697;52.588;13.394;2022-12-10T05:27:18;15.90;;;10.23;;
51616;SDS011;37697;52.588;13.394;2022-12-10T05:32:18;18.25;;;10.45;;
51616;SDS011;37697;52.588;13.394;2022-12-10T05:37:19;17.23;;;10.90;;
51616;SDS011;37697;52.588;13.394;2022-12-10T05:42:20;17.00;;;10.77;;
51616;SDS011;37697;52.588;13.394;2022-12-10T05:47:20;14.90;;;10.07;;
51616;SDS011;37697;52.588;13.394;2022-12-10T05:52:21;17.52;;;9.83;;
51616;SDS011;37697;52.588;13.394;2022-12-10T05:57:21;15.13;;;9.60;;
51616;SDS011;37697;52.588;13.394;2022-12-10T06:02:22;16.00;;;9.93;;
51616;SDS011;37697;52.588;13.394;2022-12-10T06:07:23;14.83;;;9.07;;
51616;SDS011;37697;52.588;13.394;2022-12-10T06:12:23;15.03;;;9.53;;
51616;SDS011;37697;52.588;13.394;2022-12-10T06:17:24;16.33;;;9.70;;
51616;SDS011;37697;52.588;13.394;2022-12-10T06:22:25;15.23;;;9.60;;
51616;SDS011;37697;52.588;13.394;2022-12-10T06:27:26;15.55;;;10.38;;
51616;SDS011;37697;52.588;13.394;2022-12-10T06:32:26;14.03;;;9.10;;
51616;SDS011;37697;52.588;13.394;2022-12-10T06:37:27;17.10;;;10.07;;
51616;SDS011;37697;52.588;13.394;2022-12-10T06:42:28;12.43;;;7.47;;
51616;SDS011;37697;52.588;13.394;2022-12-10T06:47:28;13.80;;;9.03;;
51616;SDS011;37697;52.588;13.394;2022-12-10T06:52:29;14.00;;;9.13;;
51616;SDS011;37697;52.588;13.394;2022-12-10T06:57:29;16.07;;;9.55;;
51616;SDS011;37697;52.588;13.394;2022-12-10T07:02:30;14.23;;;8.70;;
51616;SDS011;37697;52.588;13.394;2022-12-10T07:07:31;12.83;;;8.63;;
51616;SDS011;37697;52.588;13.394;2022-12-10T07:12:32;12.80;;;8.20;;
51616;SDS011;37697;52.588;13.394;2022-12-10T07:17:33;11.23;;;7.47;;
51616;SDS011;37697;52.588;13.394;2022-12-10T07:22:34;10.23;;;7.40;;
51616;SDS011;37697;52.588;13.394;2022-12-10T07:27:34;9.60;;;6.58;;
51616;SDS011;37697;52.588;13.394;2022-12-10T07:32:35;12.87;;;8.20;;
51616;SDS011;37697;52.588;13.394;2022-12-10T07:37:36;11.90;;;7.28;;
51616;SDS011;37697;52.588;13.394;2022-12-10T07:42:36;13.93;;;8.53;;
51616;SDS011;37697;52.588;13.394;2022-12-10T07:47:37;11.63;;;8.07;;
51616;SDS011;37697;52.588;13.394;2022-12-10T07:52:40;12.57;;;8.67;;
51616;SDS011;37697;52.588;13.394;2022-12-10T07:57:41;12.13;;;8.30;;
51616;SDS011;37697;52.588;13.394;2022-12-10T08:02:42;13.70;;;8.80;;
51616;SDS011;37697;52.588;13.394;2022-12-10T08:07:43;13.73;;;8.83;;
51616;SDS011;37697;52.588;13.394;2022-12-10T08:12:43;13.73;;;9.83;;
51616;SDS011;37697;52.588;13.394;2022-12-10T08:17:44;12.00;;;7.73;;
51616;SDS011;37697;52.588;13.394;2022-12-10T08:22:45;13.25;;;9.23;;
51616;SDS011;37697;52.588;13.394;2022-12-10T08:27:45;14.50;;;9.47;;
51616;SDS011;37697;52.588;13.394;2022-12-10T08:32:46;14.57;;;9.63;;
51616;SDS011;37697;52.588;13.394;2022-12-10T08:37:47;14.13;;;8.97;;
51616;SDS011;37697;52.588;13.394;2022-12-10T08:42:48;17.13;;;10.63;;
51616;SDS011;37697;52.588;13.394;2022-12-10T08:47:48;14.20;;;9.27;;
51616;SDS011;37697;52.588;13.394;2022-12-10T08:52:49;15.07;;;10.27;;
51616;SDS011;37697;52.588;13.394;2022-12-10T08:57:50;12.35;;;8.40;;
51616;SDS011;37697;52.588;13.394;2022-12-10T09:02:50;13.30;;;9.10;;
51616;SDS011;37697;52.588;13.394;2022-12-10T09:07:51;13.63;;;9.50;;
51616;SDS011;37697;52.588;13.394;2022-12-10T09:12:52;10.73;;;7.63;;
51616;SDS011;37697;52.588;13.394;2022-12-10T09:17:53;11.83;;;8.17;;
51616;SDS011;37697;52.588;13.394;2022-12-10T09:22:53;14.90;;;9.83;;
51616;SDS011;37697;52.588;13.394;2022-12-10T09:27:54;13.22;;;9.35;;
51616;SDS011;37697;52.588;13.394;2022-12-10T09:32:55;13.90;;;9.53;;
51616;SDS011;37697;52.588;13.394;2022-12-10T09:37:56;12.80;;;8.33;;
51616;SDS011;37697;52.588;13.394;2022-12-10T09:43:04;12.63;;;7.57;;
51616;SDS011;37697;52.588;13.394;2022-12-10T09:53:26;17.48;;;11.33;;
51616;SDS011;37697;52.588;13.394;2022-12-10T09:58:29;11.97;;;8.87;;
51616;SDS011;37697;52.588;13.394;2022-12-10T10:03:40;11.93;;;8.30;;
51616;SDS011;37697;52.588;13.394;2022-12-10T10:08:46;11.35;;;8.13;;
51616;SDS011;37697;52.588;13.394;2022-12-10T10:13:50;11.13;;;8.30;;
51616;SDS011;37697;52.588;13.394;2022-12-10T10:19:13;12.80;;;8.63;;
51616;SDS011;37697;52.588;13.394;2022-12-10T10:24:32;12.47;;;8.93;;
51616;SDS011;37697;52.588;13.394;2022-12-10T10:29:40;12.25;;;8.30;;
51616;SDS011;37697;52.588;13.394;2022-12-10T10:34:41;12.67;;;8.27;;
51616;SDS011;37697;52.588;13.394;2022-12-10T10:39:45;12.93;;;9.20;;
51616;SDS011;37697;52.588;13.394;2022-12-10T10:44:52;12.50;;;9.13;;
51616;SDS011;37697;52.588;13.394;2022-12-10T10:49:53;13.83;;;10.00;;
51616;SDS011;37697;52.588;13.394;2022-12-10T10:54:54;12.90;;;8.70;;
51616;SDS011;37697;52.588;13.394;2022-12-10T10:59:55;13.40;;;9.03;;
51616;SDS011;37697;52.588;13.394;2022-12-10T11:05:07;14.13;;;9.60;;
51616;SDS011;37697;52.588;13.394;2022-12-10T11:10:24;14.53;;;9.73;;
51616;SDS011;37697;52.588;13.394;2022-12-10T11:15:36;12.50;;;9.10;;
51616;SDS011;37697;52.588;13.394;2022-12-10T11:20:42;15.93;;;10.13;;
51616;SDS011;37697;52.588;13.394;2022-12-10T11:25:57;15.00;;;10.20;;
51616;SDS011;37697;52.588;13.394;2022-12-10T11:36:27;13.60;;;9.93;;
51616;SDS011;37697;52.588;13.394;2022-12-10T11:41:41;15.97;;;9.73;;
51616;SDS011;37697;52.588;13.394;2022-12-10T11:52:11;14.67;;;10.37;;
51616;SDS011;37697;52.588;13.394;2022-12-10T12:07:39;15.27;;;10.57;;
51616;SDS011;37697;52.588;13.394;2022-12-10T12:12:55;15.60;;;10.37;;
51616;SDS011;37697;52.588;13.394;2022-12-10T12:18:14;18.13;;;11.47;;
51616;SDS011;37697;52.588;13.394;2022-12-10T12:29:10;16.70;;;11.30;;
51616;SDS011;37697;52.588;13.394;2022-12-10T12:40:03;16.93;;;11.95;;
51616;SDS011;37697;52.588;13.394;2022-12-10T12:45:32;17.47;;;12.43;;
51616;SDS011;37697;52.588;13.394;2022-12-10T12:55:59;17.37;;;11.30;;
51616;SDS011;37697;52.588;13.394;2022-12-10T13:01:24;15.30;;;10.32;;
51616;SDS011;37697;52.588;13.394;2022-12-10T13:06:42;16.10;;;10.93;;
51616;SDS011;37697;52.588;13.394;2022-12-10T13:17:32;15.90;;;10.80;;
51616;SDS011;37697;52.588;13.394;2022-12-10T13:22:41;20.10;;;11.83;;
51616;SDS011;37697;52.588;13.394;2022-12-10T13:27:55;20.60;;;11.78;;
51616;SDS011;37697;52.588;13.394;2022-12-10T13:33:12;21.70;;;11.90;;
51616;SDS011;37697;52.588;13.394;2022-12-10T13:38:20;23.25;;;13.15;;
51616;SDS011;37697;52.588;13.394;2022-12-10T13:48:57;16.03;;;9.07;;
51616;SDS011;37697;52.588;13.394;2022-12-10T13:59:28;23.10;;;11.60;;
51616;SDS011;37697;52.588;13.394;2022-12-10T14:05:02;19.03;;;10.77;;
51616;SDS011;37697;52.588;13.394;2022-12-10T14:10:27;18.30;;;10.80;;
51616;SDS011;37697;52.588;13.394;2022-12-10T14:15:31;21.60;;;11.00;;
51616;SDS011;37697;52.588;13.394;2022-12-10T14:20:35;17.77;;;9.87;;
51616;SDS011;37697;52.588;13.394;2022-12-10T14:25:42;21.00;;;10.82;;
51616;SDS011;37697;52.588;13.394;2022-12-10T14:30:47;22.27;;;11.70;;
51616;SDS011;37697;52.588;13.394;2022-12-10T14:35:50;18.97;;;10.83;;
51616;SDS011;37697;52.588;13.394;2022-12-10T14:40:53;22.37;;;11.97;;
51616;SDS011;37697;52.588;13.394;2022-12-10T14:51:05;19.57;;;9.97;;
51616;SDS011;37697;52.588;13.394;2022-12-10T15:01:44;23.83;;;11.37;;
51616;SDS011;37697;52.588;13.394;2022-12-10T15:06:48;23.73;;;11.45;;
51616;SDS011;37697;52.588;13.394;2022-12-10T15:11:56;30.43;;;14.20;;
51616;SDS011;37697;52.588;13.394;2022-12-10T15:16:57;27.03;;;14.77;;
51616;SDS011;37697;52.588;13.394;2022-12-10T15:22:16;28.10;;;13.23;;
51616;SDS011;37697;52.588;13.394;2022-12-10T15:27:14;31.82;;;15.43;;
51616;SDS011;37697;52.588;13.394;2022-12-10T15:32:25;27.03;;;13.43;;
51616;SDS011;37697;52.588;13.394;2022-12-10T15:37:32;26.00;;;12.63;;
51616;SDS011;37697;52.588;13.394;2022-12-10T15:47:44;29.53;;;13.70;;
51616;SDS011;37697;52.588;13.394;2022-12-10T15:52:45;33.33;;;15.13;;
51616;SDS011;37697;52.588;13.394;2022-12-10T15:57:45;30.53;;;15.37;;
51616;SDS011;37697;52.588;13.394;2022-12-10T16:02:56;34.37;;;15.87;;
51616;SDS011;37697;52.588;13.394;2022-12-10T16:08:06;35.47;;;15.07;;
51616;SDS011;37697;52.588;13.394;2022-12-10T16:13:28;35.57;;;15.63;;
51616;SDS011;37697;52.588;13.394;2022-12-10T16:18:30;34.20;;;15.47;;
51616;SDS011;37697;52.588;13.394;2022-12-10T16:23:32;42.17;;;16.40;;
51616;SDS011;37697;52.588;13.394;2022-12-10T16:28:33;36.17;;;15.88;;
51616;SDS011;37697;52.588;13.394;2022-12-10T16:33:34;40.25;;;16.30;;
51616;SDS011;37697;52.588;13.394;2022-12-10T16:38:35;44.60;;;19.00;;
51616;SDS011;37697;52.588;13.394;2022-12-10T16:43:35;39.77;;;16.50;;
51616;SDS011;37697;52.588;13.394;2022-12-10T16:48:36;38.53;;;17.30;;
51616;SDS011;37697;52.588;13.394;2022-12-10T16:53:37;37.03;;;15.73;;
51616;SDS011;37697;52.588;13.394;2022-12-10T16:58:37;39.95;;;17.00;;
51616;SDS011;37697;52.588;13.394;2022-12-10T17:03:38;36.43;;;15.37;;
51616;SDS011;37697;52.588;13.394;2022-12-10T17:08:38;36.03;;;14.50;;
51616;SDS011;37697;52.588;13.394;2022-12-10T17:13:39;37.60;;;16.73;;
51616;SDS011;37697;52.588;13.394;2022-12-10T17:18:42;45.20;;;17.50;;
51616;SDS011;37697;52.588;13.394;2022-12-10T17:23:42;33.17;;;15.30;;
51616;SDS011;37697;52.588;13.394;2022-12-10T17:28:43;39.80;;;15.67;;
51616;SDS011;37697;52.588;13.394;2022-12-10T17:33:44;39.57;;;16.37;;
51616;SDS011;37697;52.588;13.394;2022-12-10T17:38:44;40.80;;;16.13;;
51616;SDS011;37697;52.588;13.394;2022-12-10T17:43:45;41.68;;;17.75;;
51616;SDS011;37697;52.588;13.394;2022-12-10T17:48:47;38.20;;;15.87;;
51616;SDS011;37697;52.588;13.394;2022-12-10T17:53:48;40.43;;;15.83;;
51616;SDS011;37697;52.588;13.394;2022-12-10T17:58:50;39.73;;;15.93;;
51616;SDS011;37697;52.588;13.394;2022-12-10T18:03:52;36.97;;;15.47;;
51616;SDS011;37697;52.588;13.394;2022-12-10T18:08:55;41.73;;;15.77;;
51616;SDS011;37697;52.588;13.394;2022-12-10T18:13:59;37.87;;;15.17;;
51616;SDS011;37697;52.588;13.394;2022-12-10T18:19:01;32.28;;;13.22;;
51616;SDS011;37697;52.588;13.394;2022-12-10T18:24:06;36.57;;;14.63;;
51616;SDS011;37697;52.588;13.394;2022-12-10T18:29:08;30.95;;;12.50;;
51616;SDS011;37697;52.588;13.394;2022-12-10T18:34:15;35.00;;;15.37;;
51616;SDS011;37697;52.588;13.394;2022-12-10T18:44:23;29.30;;;13.20;;
51616;SDS011;37697;52.588;13.394;2022-12-10T18:49:27;36.83;;;16.10;;
51616;SDS011;37697;52.588;13.394;2022-12-10T18:54:30;37.83;;;17.43;;
51616;SDS011;37697;52.588;13.394;2022-12-10T18:59:31;29.77;;;14.20;;
51616;SDS011;37697;52.588;13.394;2022-12-10T19:04:32;32.13;;;13.97;;
51616;SDS011;37697;52.588;13.394;2022-12-10T19:09:33;31.63;;;15.37;;
51616;SDS011;37697;52.588;13.394;2022-12-10T19:14:35;35.00;;;15.87;;
51616;SDS011;37697;52.588;13.394;2022-12-10T19:19:36;33.00;;;14.47;;
51616;SDS011;37697;52.588;13.394;2022-12-10T19:24:37;28.63;;;14.97;;
51616;SDS011;37697;52.588;13.394;2022-12-10T19:29:37;33.60;;;15.27;;
51616;SDS011;37697;52.588;13.394;2022-12-10T19:34:40;31.27;;;15.63;;
51616;SDS011;37697;52.588;13.394;2022-12-10T19:39:41;33.17;;;16.67;;
51616;SDS011;37697;52.588;13.394;2022-12-10T19:44:42;34.67;;;15.97;;
51616;SDS011;37697;52.588;13.394;2022-12-10T19:49:42;27.93;;;16.13;;
51616;SDS011;37697;52.588;13.394;2022-12-10T19:54:43;30.53;;;16.40;;
51616;SDS011;37697;52.588;13.394;2022-12-10T19:59:44;28.67;;;16.42;;
51616;SDS011;37697;52.588;13.394;2022-12-10T20:04:45;24.47;;;15.07;;
51616;SDS011;37697;52.588;13.394;2022-12-10T20:09:45;26.80;;;14.60;;
51616;SDS011;37697;52.588;13.394;2022-12-10T20:14:46;27.40;;;16.20;;
51616;SDS011;37697;52.588;13.394;2022-12-10T20:19:47;24.00;;;13.27;;
51616;SDS011;37697;52.588;13.394;2022-12-10T20:24:47;25.83;;;14.57;;
51616;SDS011;37697;52.588;13.394;2022-12-10T20:29:49;27.40;;;15.23;;
51616;SDS011;37697;52.588;13.394;2022-12-10T20:34:50;22.70;;;14.17;;
51616;SDS011;37697;52.588;13.394;2022-12-10T20:39:51;24.87;;;13.93;;
51616;SDS011;37697;52.588;13.394;2022-12-10T20:44:52;23.73;;;13.22;;
51616;SDS011;37697;52.588;13.394;2022-12-10T20:49:52;24.47;;;14.10;;
51616;SDS011;37697;52.588;13.394;2022-12-10T20:54:53;21.30;;;11.63;;
51616;SDS011;37697;52.588;13.394;2022-12-10T20:59:54;27.57;;;15.43;;
51616;SDS011;37697;52.588;13.394;2022-12-10T21:04:55;24.20;;;12.20;;
51616;SDS011;37697;52.588;13.394;2022-12-10T21:09:55;27.13;;;15.67;;
51616;SDS011;37697;52.588;13.394;2022-12-10T21:14:57;20.87;;;12.07;;
51616;SDS011;37697;52.588;13.394;2022-12-10T21:19:58;26.27;;;14.90;;
51616;SDS011;37697;52.588;13.394;2022-12-10T21:24:59;25.80;;;14.00;;
51616;SDS011;37697;52.588;13.394;2022-12-10T21:29:59;19.32;;;11.03;;
51616;SDS011;37697;52.588;13.394;2022-12-10T21:35:00;24.80;;;13.00;;
51616;SDS011;37697;52.588;13.394;2022-12-10T21:40:00;19.60;;;12.03;;
51616;SDS011;37697;52.588;13.394;2022-12-10T21:45:01;24.90;;;13.10;;
51616;SDS011;37697;52.588;13.394;2022-12-10T21:50:02;23.97;;;12.50;;
51616;SDS011;37697;52.588;13.394;2022-12-10T21:55:04;20.07;;;12.07;;
51616;SDS011;37697;52.588;13.394;2022-12-10T22:00:06;18.60;;;10.13;;
51616;SDS011;37697;52.588;13.394;2022-12-10T22:05:08;23.93;;;13.23;;
51616;SDS011;37697;52.588;13.394;2022-12-10T22:10:12;19.57;;;11.77;;
51616;SDS011;37697;52.588;13.394;2022-12-10T22:15:13;20.23;;;11.50;;
51616;SDS011;37697;52.588;13.394;2022-12-10T22:20:14;18.70;;;10.77;;
51616;SDS011;37697;52.588;13.394;2022-12-10T22:25:15;21.70;;;11.23;;
51616;SDS011;37697;52.588;13.394;2022-12-10T22:30:15;17.53;;;10.17;;
51616;SDS011;37697;52.588;13.394;2022-12-10T22:35:16;20.20;;;10.37;;
51616;SDS011;37697;52.588;13.394;2022-12-10T22:45:18;16.33;;;9.77;;
51616;SDS011;37697;52.588;13.394;2022-12-10T22:50:19;19.17;;;10.35;;
51616;SDS011;37697;52.588;13.394;2022-12-10T22:55:19;15.77;;;10.17;;
51616;SDS011;37697;52.588;13.394;2022-12-10T23:00:21;17.63;;;10.10;;
51616;SDS011;37697;52.588;13.394;2022-12-10T23:05:22;18.50;;;10.55;;
51616;SDS011;37697;52.588;13.394;2022-12-10T23:10:23;16.70;;;10.63;;
51616;SDS011;37697;52.588;13.394;2022-12-10T23:15:25;15.85;;;9.35;;
51616;SDS011;37697;52.588;13.394;2022-12-10T23:25:27;17.60;;;8.77;;
51616;SDS011;37697;52.588;13.394;2022-12-10T23:30:27;17.30;;;11.83;;
51616;SDS011;37697;52.588;13.394;2022-12-10T23:35:28;15.87;;;10.00;;
51616;SDS011;37697;52.588;13.394;2022-12-10T23:40:29;17.97;;;11.17;;
51616;SDS011;37697;52.588;13.394;2022-12-10T23:45:29;18.95;;;10.20;;
51616;SDS011;37697;52.588;13.394;2022-12-10T23:50:30;14.53;;;9.17;;
51616;SDS011;37697;52.588;13.394;2022-12-10T23:55:32;15.40;;;9.93;;
